Time;durP1;ratioP1;P1;durP2;ratioP2;P2;SDS_P1;SDS_P2;PMS_P1;PMS_P2;Temp;Humidity;BMP_temperature;BMP_pressure;BME280_temperature;BME280_humidity;BME280_pressure;Samples;Min_cycle;Max_cycle;Signal;HPM_P1;HPM_P2
2022/12/24 00:00:59;;;;;;;90.03;49.30;;;4.10;99.90;;;;;;4928412;29;20230;-79
2022/12/24 00:03:26;;;;;;;86.97;49.47;;;4.10;99.90;;;;;;4929938;29;20298;-79
2022/12/24 00:05:52;;;;;;;94.13;53.40;;;4.10;99.90;;;;;;4929878;29;20218;-78
2022/12/24 00:08:20;;;;;;;87.47;49.60;;;4.10;99.90;;;;;;4931891;29;20209;-79
2022/12/24 00:10:50;;;;;;;92.67;51.17;;;4.10;99.90;;;;;;4931283;29;20644;-81
2022/12/24 00:13:18;;;;;;;97.70;51.83;;;4.00;99.90;;;;;;4931362;29;20210;-79
2022/12/24 00:15:44;;;;;;;88.23;49.27;;;4.00;99.90;;;;;;4922631;29;20221;-79
2022/12/24 00:18:11;;;;;;;84.90;47.87;;;4.00;99.90;;;;;;4910672;29;20223;-79
2022/12/24 00:20:38;;;;;;;89.53;48.83;;;3.90;99.90;;;;;;4910935;29;20306;-78
2022/12/24 00:23:05;;;;;;;94.63;50.30;;;3.90;99.90;;;;;;4911489;29;20293;-79
2022/12/24 00:25:33;;;;;;;86.90;49.07;;;3.90;99.90;;;;;;4914490;29;20297;-80
2022/12/24 00:28:00;;;;;;;96.43;51.03;;;3.90;99.90;;;;;;4928636;29;20333;-80
2022/12/24 00:30:26;;;;;;;90.80;47.83;;;3.90;99.90;;;;;;4927290;29;20273;-79
2022/12/24 00:32:53;;;;;;;93.47;50.00;;;3.80;99.90;;;;;;4925249;29;20210;-78
2022/12/24 00:35:20;;;;;;;91.93;49.70;;;3.90;99.90;;;;;;4929236;29;20296;-79
2022/12/24 00:37:48;;;;;;;89.87;48.13;;;3.80;99.90;;;;;;4928669;29;20663;-79
2022/12/24 00:40:15;;;;;;;92.07;49.20;;;3.70;99.90;;;;;;4928564;29;20348;-79
2022/12/24 00:42:43;;;;;;;86.43;47.70;;;3.70;99.90;;;;;;4928045;29;20667;-79
2022/12/24 00:45:11;;;;;;;92.43;48.90;;;3.70;99.90;;;;;;4926802;29;20214;-79
2022/12/24 00:47:38;;;;;;;87.43;47.10;;;3.70;99.90;;;;;;4926939;29;20663;-79
2022/12/24 00:50:06;;;;;;;88.23;48.60;;;3.70;99.90;;;;;;4926716;29;20571;-79
2022/12/24 00:52:33;;;;;;;88.90;48.23;;;3.80;99.90;;;;;;4926505;29;20214;-78
2022/12/24 00:55:00;;;;;;;91.20;47.83;;;3.70;99.90;;;;;;4926104;29;20218;-79
2022/12/24 00:57:26;;;;;;;86.80;47.33;;;3.70;99.90;;;;;;4926014;29;20545;-79
2022/12/24 00:59:55;;;;;;;89.83;48.60;;;3.70;99.90;;;;;;4919967;29;20608;-78
2022/12/24 01:02:21;;;;;;;91.10;47.97;;;3.70;99.90;;;;;;4917710;29;20225;-78
2022/12/24 01:07:40;;;;;;;82.00;46.20;;;3.80;99.90;;;;;;4909054;29;20749;-80
2022/12/24 01:10:08;;;;;;;81.90;45.50;;;3.80;99.90;;;;;;4917774;29;20681;-71
2022/12/24 01:12:35;;;;;;;79.90;43.97;;;3.80;99.90;;;;;;4917225;29;20210;-72
2022/12/24 01:15:03;;;;;;;80.37;45.63;;;3.90;99.90;;;;;;4914825;29;20214;-74
2022/12/24 01:17:31;;;;;;;83.17;44.43;;;3.90;99.90;;;;;;4916390;29;20214;-71
2022/12/24 01:19:58;;;;;;;86.17;46.50;;;3.90;99.90;;;;;;4916880;29;20228;-72
2022/12/24 01:22:25;;;;;;;80.17;44.50;;;3.90;99.90;;;;;;4916857;29;20583;-72
2022/12/24 01:24:52;;;;;;;82.10;44.80;;;3.90;99.90;;;;;;4916567;29;20225;-71
2022/12/24 01:27:18;;;;;;;77.70;43.30;;;3.90;99.90;;;;;;4911683;29;20210;-71
2022/12/24 01:29:45;;;;;;;78.30;44.33;;;4.00;99.90;;;;;;4916761;29;20208;-72
2022/12/24 01:32:13;;;;;;;86.10;44.83;;;4.00;99.90;;;;;;4916615;29;20212;-72
2022/12/24 01:34:40;;;;;;;80.63;43.40;;;4.10;99.90;;;;;;4916746;29;20213;-72
2022/12/24 01:37:07;;;;;;;79.93;44.63;;;4.10;99.90;;;;;;4915754;29;20682;-71
2022/12/24 01:39:34;;;;;;;79.43;44.20;;;4.10;99.90;;;;;;4916257;29;20631;-71
2022/12/24 01:44:48;;;;;;;79.27;43.57;;;4.20;99.90;;;;;;4916477;29;20264;-71
2022/12/24 01:47:20;;;;;;;81.37;44.50;;;4.20;99.90;;;;;;4915193;29;20206;-72
2022/12/24 01:49:51;;;;;;;73.73;41.87;;;4.20;99.90;;;;;;4916520;29;20549;-72
2022/12/24 01:52:21;;;;;;;73.50;42.13;;;4.20;99.90;;;;;;4913595;29;20678;-72
2022/12/24 01:54:50;;;;;;;72.87;43.03;;;4.20;99.90;;;;;;4915269;29;20245;-72
2022/12/24 01:57:23;;;;;;;74.70;43.53;;;4.20;99.90;;;;;;4916039;29;20578;-72
2022/12/24 01:59:53;;;;;;;75.17;43.13;;;4.20;99.90;;;;;;4915941;29;20241;-73
2022/12/24 02:02:21;;;;;;;79.87;43.57;;;4.20;99.90;;;;;;4915428;29;20225;-73
2022/12/24 02:04:54;;;;;;;80.50;44.63;;;4.20;99.90;;;;;;4915478;29;20216;-71
2022/12/24 02:07:21;;;;;;;75.03;42.60;;;4.10;99.90;;;;;;4912902;29;20206;-72
2022/12/24 02:09:51;;;;;;;78.10;43.67;;;4.10;99.90;;;;;;4915817;29;20213;-71
2022/12/24 02:12:18;;;;;;;75.83;43.00;;;4.10;99.90;;;;;;4915106;29;20241;-71
2022/12/24 02:14:45;;;;;;;77.00;42.77;;;4.10;99.90;;;;;;4916099;29;20212;-72
2022/12/24 02:17:21;;;;;;;72.17;42.43;;;4.10;99.90;;;;;;4915887;29;20580;-71
2022/12/24 02:20:36;;;;;;;70.27;40.50;;;4.10;99.90;;;;;;4916090;29;20218;-72
2022/12/24 02:23:15;;;;;;;74.30;42.10;;;4.20;99.90;;;;;;4914569;29;20562;-72
2022/12/24 02:26:03;;;;;;;66.70;39.37;;;4.20;99.90;;;;;;4916015;29;20206;-72
2022/12/24 02:28:46;;;;;;;76.63;44.07;;;4.30;99.90;;;;;;4915918;29;20186;-73
2022/12/24 02:31:20;;;;;;;73.00;41.77;;;4.30;99.90;;;;;;4915590;29;20194;-71
2022/12/24 02:33:50;;;;;;;72.90;42.37;;;4.40;99.90;;;;;;4914510;29;20206;-71
2022/12/24 02:36:25;;;;;;;68.00;40.17;;;4.40;99.90;;;;;;4915873;29;20217;-72
2022/12/24 02:39:00;;;;;;;68.13;39.77;;;4.40;99.90;;;;;;4915529;29;20225;-73
2022/12/24 02:42:04;;;;;;;68.10;39.47;;;4.40;99.90;;;;;;4916009;29;20630;-72
2022/12/24 02:44:21;;;;;;;65.87;38.70;;;4.40;99.90;;;;;;4915516;29;20238;-71
2022/12/24 02:46:50;;;;;;;69.77;41.03;;;4.50;99.90;;;;;;4915790;29;20209;-73
2022/12/24 02:49:17;;;;;;;73.33;41.17;;;4.50;99.90;;;;;;4915485;29;20698;-72
2022/12/24 02:51:44;;;;;;;70.23;39.93;;;4.40;99.90;;;;;;4915368;29;20217;-72
2022/12/24 02:54:12;;;;;;;74.10;41.10;;;4.40;99.90;;;;;;4914655;29;20216;-71
2022/12/24 02:56:54;;;;;;;69.17;40.27;;;4.40;99.90;;;;;;4915731;29;20302;-71
2022/12/24 02:59:34;;;;;;;75.57;42.97;;;4.50;99.90;;;;;;4918077;29;20237;-71
2022/12/24 03:02:12;;;;;;;77.77;43.30;;;4.50;99.90;;;;;;4917675;29;20201;-72
2022/12/24 03:04:48;;;;;;;72.27;41.57;;;4.50;99.90;;;;;;4919536;29;20197;-72
2022/12/24 03:07:20;;;;;;;68.37;40.83;;;4.50;99.90;;;;;;4919029;29;20204;-72
2022/12/24 03:10:04;;;;;;;66.83;39.70;;;4.50;99.90;;;;;;4919216;29;20194;-72
2022/12/24 03:12:35;;;;;;;71.27;40.67;;;4.50;99.90;;;;;;4917942;29;20202;-72
2022/12/24 03:15:03;;;;;;;72.17;41.53;;;4.50;99.90;;;;;;4918738;29;20265;-72
2022/12/24 03:17:36;;;;;;;71.37;43.30;;;4.50;99.90;;;;;;4919020;29;20214;-73
2022/12/24 03:20:04;;;;;;;71.50;40.73;;;4.50;99.90;;;;;;4918634;29;20233;-73
2022/12/24 03:22:34;;;;;;;68.73;40.43;;;4.50;99.90;;;;;;4918001;29;20210;-72
2022/12/24 03:25:01;;;;;;;69.33;40.87;;;4.50;99.90;;;;;;4918864;29;20275;-73
2022/12/24 03:27:30;;;;;;;67.80;39.50;;;4.50;99.90;;;;;;4919192;29;20564;-73
2022/12/24 03:29:58;;;;;;;69.33;41.37;;;4.60;99.90;;;;;;4918899;29;20213;-73
2022/12/24 03:32:28;;;;;;;66.77;39.33;;;4.60;99.90;;;;;;4918032;29;20589;-73
2022/12/24 03:34:56;;;;;;;66.80;39.47;;;4.50;99.90;;;;;;4918801;29;20209;-73
2022/12/24 03:37:24;;;;;;;75.93;43.40;;;4.60;99.90;;;;;;4919298;29;20217;-72
2022/12/24 03:39:51;;;;;;;67.47;40.70;;;4.60;99.90;;;;;;4918286;29;20234;-73
2022/12/24 03:42:18;;;;;;;69.70;39.97;;;4.50;99.90;;;;;;4917925;29;20212;-73
2022/12/24 03:44:44;;;;;;;72.97;43.63;;;4.60;99.90;;;;;;4918580;29;20224;-72
2022/12/24 03:47:11;;;;;;;72.50;41.10;;;4.50;99.90;;;;;;4918558;29;20209;-72
2022/12/24 03:49:38;;;;;;;72.03;42.03;;;4.50;99.90;;;;;;4918672;29;20577;-72
2022/12/24 03:52:06;;;;;;;65.07;39.23;;;4.50;99.90;;;;;;4918097;29;20209;-73
2022/12/24 03:54:33;;;;;;;66.63;39.37;;;4.50;99.90;;;;;;4917448;29;20212;-74
2022/12/24 03:57:00;;;;;;;75.80;41.47;;;4.50;99.90;;;;;;4918254;29;20319;-74
2022/12/24 03:59:27;;;;;;;72.93;42.33;;;4.60;99.90;;;;;;4918087;29;20236;-73
2022/12/24 04:01:54;;;;;;;75.37;42.40;;;4.50;99.90;;;;;;4918362;29;20266;-72
2022/12/24 04:04:21;;;;;;;74.70;43.17;;;4.50;99.90;;;;;;4917521;29;20217;-73
2022/12/24 04:06:47;;;;;;;74.67;42.77;;;4.50;99.90;;;;;;4917967;29;20206;-73
2022/12/24 04:09:15;;;;;;;71.97;42.60;;;4.50;99.90;;;;;;4917978;29;20205;-72
2022/12/24 04:11:42;;;;;;;75.77;44.40;;;4.50;99.90;;;;;;4918310;29;20553;-72
2022/12/24 04:14:09;;;;;;;73.63;43.70;;;4.50;99.90;;;;;;4916719;29;20647;-72
2022/12/24 04:16:36;;;;;;;70.97;42.33;;;4.50;99.90;;;;;;4917732;29;20220;-72
2022/12/24 04:19:03;;;;;;;74.57;43.63;;;4.50;99.90;;;;;;4918223;29;20210;-72
2022/12/24 04:21:29;;;;;;;74.97;44.13;;;4.50;99.90;;;;;;4917806;29;20210;-73
2022/12/24 04:23:56;;;;;;;76.63;43.73;;;4.50;99.90;;;;;;4917004;29;20210;-73
2022/12/24 04:26:24;;;;;;;75.63;44.13;;;4.50;99.90;;;;;;4917622;29;20216;-73
2022/12/24 04:28:51;;;;;;;74.47;43.33;;;4.50;99.90;;;;;;4917751;29;20574;-72
2022/12/24 04:31:18;;;;;;;69.53;41.27;;;4.50;99.90;;;;;;4917844;29;20720;-72
2022/12/24 04:33:45;;;;;;;73.87;41.83;;;4.50;99.90;;;;;;4917082;29;20860;-72
2022/12/24 04:36:15;;;;;;;72.43;41.27;;;4.50;99.90;;;;;;4917995;29;20210;-73
2022/12/24 04:38:42;;;;;;;71.27;40.93;;;4.50;99.90;;;;;;4917573;29;20217;-73
2022/12/24 04:41:12;;;;;;;67.63;40.50;;;4.50;99.90;;;;;;4917251;29;20250;-73
2022/12/24 04:43:41;;;;;;;74.67;42.97;;;4.50;99.90;;;;;;4917068;29;20231;-72
2022/12/24 04:46:09;;;;;;;68.40;41.17;;;4.60;99.90;;;;;;4917726;29;20567;-72
2022/12/24 04:48:36;;;;;;;71.57;41.53;;;4.60;99.90;;;;;;4917572;29;20218;-74
2022/12/24 04:51:04;;;;;;;70.73;40.43;;;4.50;99.90;;;;;;4917549;29;20202;-74
2022/12/24 04:53:32;;;;;;;68.03;39.40;;;4.50;99.90;;;;;;4914425;29;20217;-72
2022/12/24 04:55:59;;;;;;;71.07;42.07;;;4.50;99.90;;;;;;4912918;29;20210;-72
2022/12/24 04:58:26;;;;;;;69.23;40.73;;;4.50;99.90;;;;;;4915227;29;20758;-73
2022/12/24 05:00:54;;;;;;;73.03;41.60;;;4.50;99.90;;;;;;4914527;29;20237;-73
2022/12/24 05:03:21;;;;;;;72.37;41.07;;;4.50;99.90;;;;;;4900719;29;20211;-72
2022/12/24 05:05:48;;;;;;;71.73;43.53;;;4.50;99.90;;;;;;4917194;29;20229;-73
2022/12/24 05:08:15;;;;;;;71.67;41.87;;;4.50;99.90;;;;;;4917400;29;20217;-72
2022/12/24 05:10:42;;;;;;;71.23;43.27;;;4.40;99.90;;;;;;4916405;29;20208;-73
2022/12/24 05:13:08;;;;;;;69.43;41.50;;;4.40;99.90;;;;;;4917195;29;20213;-73
2022/12/24 05:15:35;;;;;;;74.47;43.77;;;4.40;99.90;;;;;;4913922;29;20392;-74
2022/12/24 05:18:03;;;;;;;72.00;44.40;;;4.50;99.90;;;;;;4916457;29;20214;-72
2022/12/24 05:20:30;;;;;;;74.93;45.40;;;4.50;99.90;;;;;;4914789;29;20229;-73
2022/12/24 05:28:25;;;;;;;81.57;48.23;;;4.50;99.90;;;;;;4897266;29;20194;-73
2022/12/24 05:30:52;;;;;;;72.70;44.27;;;4.50;99.90;;;;;;4903960;29;20202;-73
2022/12/24 05:33:20;;;;;;;71.60;43.57;;;4.50;99.90;;;;;;4910229;29;20202;-74
2022/12/24 05:35:47;;;;;;;71.27;43.20;;;4.50;99.90;;;;;;4910717;29;20214;-74
2022/12/24 05:38:14;;;;;;;75.40;43.97;;;4.40;99.90;;;;;;4909228;29;20214;-75
2022/12/24 05:40:40;;;;;;;71.47;43.57;;;4.50;99.90;;;;;;4914740;29;20249;-73
2022/12/24 05:43:07;;;;;;;72.37;42.53;;;4.50;99.90;;;;;;4915820;29;20659;-73
2022/12/24 05:45:34;;;;;;;70.40;40.87;;;4.50;99.90;;;;;;4916398;29;20547;-73
2022/12/24 05:48:01;;;;;;;74.40;43.73;;;4.50;99.90;;;;;;4915747;29;20366;-73
2022/12/24 05:50:29;;;;;;;75.90;43.77;;;4.50;99.90;;;;;;4916254;29;20658;-74
2022/12/24 05:52:56;;;;;;;71.07;42.17;;;4.50;99.90;;;;;;4916801;29;20218;-73
2022/12/24 05:55:22;;;;;;;83.60;48.80;;;4.50;99.90;;;;;;4916295;29;20662;-73
2022/12/24 05:57:49;;;;;;;92.97;57.00;;;4.50;99.90;;;;;;4915482;29;20210;-73
2022/12/24 06:00:16;;;;;;;77.40;44.63;;;4.60;99.90;;;;;;4915820;29;20249;-74
2022/12/24 06:02:43;;;;;;;74.70;43.67;;;4.60;99.90;;;;;;4915692;29;20212;-75
2022/12/24 06:05:10;;;;;;;69.97;41.47;;;4.60;99.90;;;;;;4916296;29;20689;-73
2022/12/24 06:07:38;;;;;;;73.07;41.80;;;4.60;99.90;;;;;;4915463;29;20666;-74
2022/12/24 06:10:06;;;;;;;68.77;39.70;;;4.60;99.90;;;;;;4916282;29;20202;-73
2022/12/24 06:12:33;;;;;;;70.07;40.97;;;4.50;99.90;;;;;;4916301;29;20589;-73
2022/12/24 06:15:00;;;;;;;72.07;40.23;;;4.60;99.90;;;;;;4916238;29;20696;-72
2022/12/24 06:17:26;;;;;;;71.20;41.07;;;4.60;99.90;;;;;;4914072;29;20243;-73
2022/12/24 06:19:53;;;;;;;71.13;41.13;;;4.50;99.90;;;;;;4916303;29;20683;-73
2022/12/24 06:22:20;;;;;;;69.83;40.07;;;4.60;99.90;;;;;;4915340;29;20214;-73
2022/12/24 06:24:48;;;;;;;74.23;43.30;;;4.60;99.90;;;;;;4916253;29;20210;-74
2022/12/24 06:27:15;;;;;;;83.47;47.63;;;4.60;99.90;;;;;;4917059;29;20214;-73
2022/12/24 06:29:42;;;;;;;77.23;44.87;;;4.60;99.90;;;;;;4914256;29;20646;-73
2022/12/24 06:32:08;;;;;;;70.47;40.87;;;4.60;99.90;;;;;;4898731;29;20638;-75
2022/12/24 06:34:35;;;;;;;68.10;40.73;;;4.60;99.90;;;;;;4896865;29;20562;-73
2022/12/24 06:37:04;;;;;;;72.30;42.13;;;4.60;99.90;;;;;;4896902;29;20263;-73
2022/12/24 06:39:31;;;;;;;68.37;41.13;;;4.60;99.90;;;;;;4899184;29;20253;-75
2022/12/24 06:41:59;;;;;;;73.70;42.93;;;4.60;99.90;;;;;;4900207;29;20676;-75
2022/12/24 06:44:26;;;;;;;63.93;39.33;;;4.60;99.90;;;;;;4903101;29;20205;-73
2022/12/24 06:46:53;;;;;;;78.27;45.40;;;4.70;99.90;;;;;;4906013;29;20201;-74
2022/12/24 06:49:20;;;;;;;73.93;42.63;;;4.70;99.90;;;;;;4905112;29;20225;-74
2022/12/24 06:51:46;;;;;;;69.23;39.90;;;4.70;99.90;;;;;;4907084;29;20232;-75
2022/12/24 06:54:13;;;;;;;70.17;40.53;;;4.60;99.90;;;;;;4906253;29;20555;-75
2022/12/24 06:56:40;;;;;;;66.27;40.20;;;4.70;99.90;;;;;;4903434;29;20198;-75
2022/12/24 06:59:08;;;;;;;67.13;40.27;;;4.70;99.90;;;;;;4905538;29;20234;-74
2022/12/24 07:01:35;;;;;;;71.17;40.83;;;4.80;99.90;;;;;;4905772;29;20615;-71
2022/12/24 07:04:02;;;;;;;70.70;40.20;;;4.70;99.90;;;;;;4904826;29;20541;-73
2022/12/24 07:06:30;;;;;;;66.77;39.43;;;4.70;99.90;;;;;;4905472;29;20700;-72
2022/12/24 07:08:57;;;;;;;65.57;39.20;;;4.60;99.90;;;;;;4905583;29;20209;-73
2022/12/24 07:11:25;;;;;;;70.77;39.93;;;4.70;99.90;;;;;;4906867;29;20210;-72
2022/12/24 07:13:52;;;;;;;68.97;42.00;;;4.70;99.90;;;;;;4903547;29;20206;-71
2022/12/24 07:16:20;;;;;;;71.83;41.53;;;4.70;99.90;;;;;;4904651;29;20202;-73
2022/12/24 07:18:48;;;;;;;63.80;39.03;;;4.70;99.90;;;;;;4914216;29;20221;-71
2022/12/24 14:37:24;;;;;;;120.37;65.90;;;5.60;99.90;;;;;;6140735;22;1393981;-75
2022/12/24 14:39:55;;;;;;;124.13;67.73;;;5.60;99.90;;;;;;6201155;23;20202;-76
2022/12/24 19:33:21;;;;;;;229.47;124.30;;;3.80;99.90;;;;;;5607153;22;21011;-71
2022/12/24 19:35:48;;;;;;;200.37;113.87;;;3.80;99.90;;;;;;5043289;28;20276;-68
2022/12/24 19:38:14;;;;;;;208.47;120.37;;;3.90;99.90;;;;;;5046564;28;20245;-69
2022/12/24 19:40:41;;;;;;;213.93;119.57;;;4.00;99.90;;;;;;5043306;28;20197;-69
2022/12/24 19:43:08;;;;;;;179.10;103.67;;;4.10;99.90;;;;;;5049612;28;20207;-71
2022/12/24 19:45:35;;;;;;;174.17;100.37;;;4.20;99.90;;;;;;5048929;28;20665;-68
2022/12/24 19:48:02;;;;;;;194.33;110.37;;;4.40;99.90;;;;;;5040421;28;20669;-69
2022/12/24 19:50:30;;;;;;;166.33;97.70;;;4.50;99.90;;;;;;5045173;28;20253;-69
2022/12/24 19:52:56;;;;;;;170.90;98.87;;;4.60;99.90;;;;;;5047891;28;20221;-69
2022/12/24 19:55:23;;;;;;;184.40;104.33;;;4.60;99.90;;;;;;5046034;28;20611;-70
2022/12/24 19:57:52;;;;;;;180.83;101.80;;;4.70;99.90;;;;;;5048512;28;20260;-71
2022/12/24 20:00:19;;;;;;;184.03;103.37;;;4.70;99.90;;;;;;5048225;28;20215;-70
2022/12/24 20:02:46;;;;;;;201.83;110.23;;;4.80;99.90;;;;;;5048986;28;20197;-71
2022/12/24 20:05:13;;;;;;;200.67;112.40;;;4.80;99.90;;;;;;5048056;28;20578;-72
2022/12/24 20:07:41;;;;;;;200.60;114.03;;;4.90;99.90;;;;;;5036536;28;20206;-72
2022/12/24 20:10:09;;;;;;;187.73;108.20;;;4.90;99.90;;;;;;5028859;28;20210;-70
2022/12/24 20:12:36;;;;;;;176.33;100.27;;;4.90;99.90;;;;;;5041542;28;20565;-71
2022/12/24 20:15:02;;;;;;;200.10;107.67;;;5.00;99.90;;;;;;5049139;28;20532;-70
2022/12/24 20:17:29;;;;;;;232.83;124.27;;;5.00;99.90;;;;;;5045758;28;20205;-69
2022/12/24 20:19:56;;;;;;;205.20;112.60;;;5.00;99.90;;;;;;5047151;28;20727;-70
2022/12/24 20:22:23;;;;;;;228.47;122.23;;;5.00;99.90;;;;;;5046275;28;20607;-72
2022/12/24 20:24:51;;;;;;;201.80;112.03;;;5.00;99.90;;;;;;5036843;28;20210;-68
2022/12/24 20:27:18;;;;;;;196.00;113.07;;;4.90;99.90;;;;;;5028537;28;20216;-71
2022/12/24 20:29:45;;;;;;;229.17;123.63;;;4.90;99.90;;;;;;5043567;28;20212;-70
2022/12/24 20:32:12;;;;;;;232.30;125.80;;;4.90;99.90;;;;;;5044026;28;20316;-71
2022/12/24 20:34:39;;;;;;;238.07;126.77;;;4.90;99.90;;;;;;5035452;28;20234;-69
2022/12/24 20:37:05;;;;;;;197.67;111.17;;;4.90;99.90;;;;;;5037449;28;20665;-69
2022/12/24 20:39:32;;;;;;;229.33;121.20;;;4.90;99.90;;;;;;5037333;28;20199;-71
2022/12/24 20:42:01;;;;;;;214.47;120.03;;;5.00;99.90;;;;;;5034225;28;20195;-70
2022/12/24 20:44:28;;;;;;;186.90;109.33;;;4.90;99.90;;;;;;5025768;28;20685;-71
2022/12/24 20:46:54;;;;;;;191.47;111.87;;;5.00;99.90;;;;;;5022680;28;20207;-69
2022/12/24 20:49:21;;;;;;;216.43;118.50;;;5.00;99.90;;;;;;5026236;28;20222;-74
2022/12/24 20:51:48;;;;;;;203.53;117.20;;;5.00;99.90;;;;;;5023622;28;20217;-72
2022/12/24 20:54:15;;;;;;;230.40;126.27;;;5.00;99.90;;;;;;5023415;28;20206;-73
2022/12/24 20:56:42;;;;;;;213.03;122.00;;;5.00;99.90;;;;;;5025403;28;20297;-72
2022/12/24 20:59:10;;;;;;;255.77;134.90;;;5.00;99.90;;;;;;5028251;28;20202;-72
2022/12/24 21:01:37;;;;;;;273.60;139.37;;;5.00;99.90;;;;;;5024200;28;20194;-70
2022/12/24 21:04:06;;;;;;;235.83;126.57;;;5.00;99.90;;;;;;5025034;28;20212;-73
2022/12/24 21:06:34;;;;;;;191.57;108.63;;;5.00;99.90;;;;;;5024147;28;20642;-70
2022/12/24 21:09:02;;;;;;;219.60;124.17;;;5.10;99.90;;;;;;5024893;28;20231;-72
2022/12/24 21:14:15;;;;;;;219.73;121.10;;;5.00;99.90;;;;;;5022799;28;20198;-72
2022/12/24 21:16:42;;;;;;;194.67;110.50;;;5.00;99.90;;;;;;5023214;28;20209;-71
2022/12/24 21:19:13;;;;;;;225.07;117.63;;;5.00;99.90;;;;;;5022844;28;20655;-71
2022/12/24 21:21:40;;;;;;;199.13;107.93;;;5.00;99.90;;;;;;5022717;28;20210;-69
2022/12/24 21:24:10;;;;;;;174.13;99.37;;;5.00;99.90;;;;;;5026942;28;20670;-70
2022/12/24 21:26:37;;;;;;;163.93;95.07;;;5.00;99.90;;;;;;5025436;28;20209;-70
2022/12/24 21:29:05;;;;;;;180.23;101.43;;;5.00;99.90;;;;;;5026132;28;20569;-72
2022/12/24 21:31:34;;;;;;;176.47;98.67;;;5.10;99.90;;;;;;5023791;28;20373;-72
2022/12/24 21:34:03;;;;;;;161.20;96.20;;;5.10;99.90;;;;;;5030116;28;20253;-72
2022/12/24 21:36:30;;;;;;;181.93;105.00;;;5.10;99.90;;;;;;5022441;28;20226;-72
2022/12/24 21:38:56;;;;;;;179.03;103.30;;;5.20;99.90;;;;;;5014907;28;20207;-70
2022/12/24 21:41:24;;;;;;;172.47;99.43;;;5.20;99.90;;;;;;5024771;28;20220;-70
2022/12/24 21:43:51;;;;;;;163.97;93.47;;;5.20;99.90;;;;;;5017239;28;20638;-68
2022/12/24 21:46:21;;;;;;;168.70;98.27;;;5.20;99.90;;;;;;5033548;28;20220;-70
2022/12/24 21:51:35;;;;;;;192.07;105.20;;;5.20;99.90;;;;;;5030214;28;20214;-72
2022/12/24 21:59:43;;;;;;;168.13;94.27;;;5.20;99.90;;;;;;5028043;28;20351;-70
2022/12/24 22:02:11;;;;;;;160.97;90.50;;;5.10;99.90;;;;;;5029815;28;20205;-69
2022/12/24 22:04:40;;;;;;;193.13;102.80;;;5.20;99.90;;;;;;5021183;28;20233;-69
2022/12/24 22:12:46;;;;;;;158.13;84.53;;;5.10;99.90;;;;;;5032607;28;20621;-69
2022/12/24 22:15:12;;;;;;;161.07;84.80;;;5.10;99.90;;;;;;5032448;28;20570;-72
2022/12/24 22:17:39;;;;;;;149.33;81.20;;;5.10;99.90;;;;;;5032930;28;20264;-68
2022/12/24 22:20:09;;;;;;;162.23;86.30;;;5.00;99.90;;;;;;5033831;28;20214;-68
2022/12/24 22:22:36;;;;;;;158.73;83.80;;;5.00;99.90;;;;;;5033640;28;20223;-69
2022/12/24 22:25:02;;;;;;;134.67;71.90;;;5.00;99.90;;;;;;5032106;28;20206;-69
2022/12/24 22:27:29;;;;;;;159.97;81.67;;;4.90;99.90;;;;;;5027451;28;20280;-70
2022/12/24 22:29:57;;;;;;;127.03;68.23;;;4.90;99.90;;;;;;5031749;28;20578;-71
2022/12/24 22:32:24;;;;;;;133.20;69.17;;;4.80;99.90;;;;;;5026974;28;20218;-68
2022/12/24 22:34:52;;;;;;;128.90;67.87;;;4.80;99.90;;;;;;5031022;28;20238;-69
2022/12/24 22:37:20;;;;;;;129.70;68.73;;;4.70;99.90;;;;;;5030594;28;20217;-70
2022/12/24 22:39:47;;;;;;;138.17;71.20;;;4.80;99.90;;;;;;5021521;28;20285;-67
2022/12/24 22:42:14;;;;;;;127.57;67.90;;;4.70;99.90;;;;;;5013117;28;20682;-67
2022/12/24 22:44:40;;;;;;;135.97;70.63;;;4.70;99.90;;;;;;5019765;28;20573;-68
2022/12/24 22:47:07;;;;;;;139.60;71.20;;;4.70;99.90;;;;;;5030865;28;20206;-66
2022/12/24 22:49:34;;;;;;;153.13;73.80;;;4.70;99.90;;;;;;5031607;28;20216;-67
2022/12/24 22:52:01;;;;;;;143.27;73.17;;;4.70;99.90;;;;;;5032487;28;20654;-66
2022/12/24 22:54:29;;;;;;;158.30;74.00;;;4.60;99.90;;;;;;5031947;28;20230;-68
2022/12/24 22:56:56;;;;;;;159.80;75.10;;;4.60;99.90;;;;;;5032484;28;20202;-66
2022/12/24 22:59:23;;;;;;;162.10;77.27;;;4.60;99.90;;;;;;5032470;28;20209;-67
2022/12/24 23:01:51;;;;;;;135.73;66.97;;;4.50;99.90;;;;;;5032163;28;20216;-67
2022/12/24 23:04:18;;;;;;;145.63;71.70;;;4.50;99.90;;;;;;5030680;28;20213;-66
2022/12/24 23:06:45;;;;;;;136.37;66.57;;;4.50;99.90;;;;;;5030428;28;20214;-66
2022/12/24 23:09:14;;;;;;;157.80;71.63;;;4.50;99.90;;;;;;5012178;28;20211;-67
2022/12/24 23:11:43;;;;;;;128.73;62.93;;;4.50;99.90;;;;;;5030532;28;20237;-67
2022/12/24 23:16:59;;;;;;;128.50;64.70;;;4.40;99.90;;;;;;5012530;28;20201;-67
2022/12/24 23:19:26;;;;;;;158.10;71.17;;;4.40;99.90;;;;;;5012275;28;20206;-66
2022/12/24 23:21:53;;;;;;;141.83;65.93;;;4.40;99.90;;;;;;5012829;28;20664;-67
2022/12/24 23:24:20;;;;;;;147.67;67.57;;;4.40;99.90;;;;;;5029364;28;20697;-66
2022/12/24 23:26:48;;;;;;;155.17;71.17;;;4.30;99.90;;;;;;5014802;28;20198;-66
2022/12/24 23:29:14;;;;;;;130.63;63.67;;;4.30;99.90;;;;;;5029643;28;20646;-67
2022/12/24 23:31:41;;;;;;;154.97;70.50;;;4.20;99.90;;;;;;5031758;28;20580;-66
2022/12/24 23:34:08;;;;;;;119.37;58.37;;;4.20;99.90;;;;;;5031738;28;20238;-68
2022/12/24 23:36:35;;;;;;;146.17;68.53;;;4.20;99.90;;;;;;5030957;28;20221;-67
2022/12/24 23:39:02;;;;;;;144.47;67.03;;;4.20;99.90;;;;;;5023985;28;20696;-66
2022/12/24 23:41:28;;;;;;;136.80;65.50;;;4.20;99.90;;;;;;5031308;28;20216;-67
2022/12/24 23:43:57;;;;;;;126.70;64.17;;;4.20;99.90;;;;;;5031723;28;20201;-67
2022/12/24 23:46:23;;;;;;;130.93;64.47;;;4.20;99.90;;;;;;5030452;28;20571;-69
2022/12/24 23:48:54;;;;;;;119.93;59.50;;;4.20;99.90;;;;;;5016854;28;20560;-66
2022/12/24 23:51:23;;;;;;;122.57;60.13;;;4.20;99.90;;;;;;5031731;28;20191;-66
2022/12/24 23:53:50;;;;;;;97.40;54.30;;;4.20;99.90;;;;;;5030099;28;20253;-67
2022/12/24 23:56:17;;;;;;;128.90;63.13;;;4.20;99.90;;;;;;5031411;28;20232;-68
2022/12/24 23:58:45;;;;;;;122.80;60.20;;;4.20;99.90;;;;;;5031276;28;20206;-67
